Time;durP1;ratioP1;P1;durP2;ratioP2;P2;SDS_P1;SDS_P2;PMS_P1;PMS_P2;Temp;Humidity;BMP_temperature;BMP_pressure;BME280_temperature;BME280_humidity;BME280_pressure;Samples;Min_cycle;Max_cycle;Signal;HPM_P1;HPM_P2
2021/04/16 00:00:58;;;;;;;42.73;25.77;;;;;;;5.51;100.00;100533.09;20902744;28;20583;-60
2021/04/16 00:11:25;;;;;;;34.90;22.02;;;;;;;5.42;100.00;100540.47;20896282;28;20279;-54
2021/04/16 00:21:27;;;;;;;39.33;24.67;;;;;;;5.38;100.00;100536.22;20894506;28;20225;-55
2021/04/16 00:31:30;;;;;;;38.93;23.60;;;;;;;5.43;100.00;100531.59;20894341;28;20230;-55
2021/04/16 00:41:31;;;;;;;31.07;21.67;;;;;;;5.43;100.00;100514.88;20897754;28;20706;-54
2021/04/16 00:51:42;;;;;;;40.97;23.87;;;;;;;5.47;100.00;100527.03;20911914;28;20304;-55
2021/04/16 01:01:43;;;;;;;40.47;22.77;;;;;;;5.47;100.00;100511.16;20911416;28;20214;-55
2021/04/16 01:11:43;;;;;;;43.47;24.53;;;;;;;5.44;100.00;100501.56;20910674;28;20241;-55
2021/04/16 01:21:52;;;;;;;32.60;18.97;;;;;;;5.36;100.00;100493.06;20908649;28;20306;-55
2021/04/16 01:31:53;;;;;;;28.93;18.80;;;;;;;5.37;100.00;100489.50;20907651;28;20320;-54
2021/04/16 01:41:54;;;;;;;27.83;18.23;;;;;;;5.37;100.00;100486.88;20908182;28;20739;-55
2021/04/16 01:51:55;;;;;;;46.83;23.07;;;;;;;5.35;100.00;100475.47;20907064;28;20407;-55
2021/04/16 02:01:56;;;;;;;30.97;19.50;;;;;;;5.34;100.00;100480.81;20906534;28;20220;-57
2021/04/16 02:11:57;;;;;;;28.30;18.03;;;;;;;5.31;100.00;100473.88;20905926;28;20230;-57
2021/04/16 02:21:57;;;;;;;26.90;19.00;;;;;;;5.19;100.00;100457.66;20905269;28;20229;-55
2021/04/16 02:31:58;;;;;;;21.10;15.57;;;;;;;5.21;100.00;100467.22;20902388;28;20277;-56
2021/04/16 02:41:58;;;;;;;23.47;15.57;;;;;;;5.24;100.00;100461.81;20903791;28;20254;-55
2021/04/16 02:51:59;;;;;;;20.57;14.43;;;;;;;5.16;100.00;100463.06;20902581;28;20553;-55
2021/04/16 03:02:06;;;;;;;20.87;14.60;;;;;;;5.11;100.00;100465.88;20901960;28;20221;-55
2021/04/16 03:12:07;;;;;;;24.40;16.40;;;;;;;5.03;100.00;100460.03;20899807;28;20595;-55
2021/04/16 03:22:08;;;;;;;20.27;15.67;;;;;;;5.09;100.00;100451.84;20900505;28;20225;-56
2021/04/16 03:32:08;;;;;;;27.03;16.33;;;;;;;5.04;100.00;100445.88;20898280;28;20248;-55
2021/04/16 03:42:09;;;;;;;23.53;15.03;;;;;;;5.11;100.00;100460.59;20898902;28;20222;-56
2021/04/16 03:52:10;;;;;;;20.47;14.23;;;;;;;5.01;100.00;100459.22;20898366;28;20789;-58
2021/04/16 04:02:11;;;;;;;24.77;16.27;;;;;;;5.09;100.00;100462.41;20897599;28;20479;-56
2021/04/16 04:12:12;;;;;;;21.97;15.17;;;;;;;5.00;100.00;100460.16;20896196;28;20232;-56
2021/04/16 04:22:13;;;;;;;28.07;18.33;;;;;;;5.02;100.00;100460.94;20894922;28;20261;-55
2021/04/16 04:32:14;;;;;;;21.20;15.57;;;;;;;5.00;100.00;100462.78;20894803;28;20246;-56
2021/04/16 04:42:22;;;;;;;27.03;17.37;;;;;;;5.13;100.00;100469.31;20895749;28;20463;-56
2021/04/16 04:52:30;;;;;;;30.03;18.87;;;;;;;5.11;100.00;100465.88;20895459;28;20240;-56
2021/04/16 05:02:30;;;;;;;22.90;16.40;;;;;;;5.11;100.00;100460.59;20894987;28;20325;-56
2021/04/16 05:12:31;;;;;;;27.70;16.03;;;;;;;5.07;100.00;100464.28;20894399;28;20314;-56
2021/04/16 05:22:31;;;;;;;26.48;16.88;;;;;;;5.10;100.00;100458.84;20870991;28;20287;-56
2021/04/16 05:32:40;;;;;;;19.57;13.00;;;;;;;5.16;100.00;100453.34;20850336;28;20226;-56
2021/04/16 05:42:41;;;;;;;23.43;14.37;;;;;;;5.23;100.00;100460.09;20882024;28;20237;-56
2021/04/16 05:52:49;;;;;;;23.47;13.73;;;;;;;5.25;100.00;100452.09;20880528;28;20230;-57
2021/04/16 06:02:49;;;;;;;20.57;12.83;;;;;;;5.27;100.00;100450.25;20870451;28;20284;-57
2021/04/16 06:12:51;;;;;;;20.57;13.13;;;;;;;5.38;100.00;100448.91;20887921;28;20526;-56
2021/04/16 06:22:53;;;;;;;28.67;16.77;;;;;;;5.51;100.00;100451.03;20865344;28;20302;-56
2021/04/16 06:33:17;;;;;;;27.60;14.43;;;;;;;5.54;100.00;100449.13;20885571;28;20254;-57
2021/04/16 06:43:20;;;;;;;21.50;12.57;;;;;;;5.52;100.00;100450.13;20864096;28;20234;-57
2021/04/16 06:53:40;;;;;;;25.27;13.53;;;;;;;5.41;100.00;100451.44;20885943;28;20261;-57
2021/04/16 07:03:47;;;;;;;17.20;11.83;;;;;;;5.37;100.00;100464.84;20867261;28;20226;-58
2021/04/16 07:13:58;;;;;;;27.93;14.60;;;;;;;5.31;100.00;100447.41;20877323;28;20280;-57
2021/04/16 07:24:03;;;;;;;18.23;13.23;;;;;;;5.42;100.00;100461.09;20860742;28;20782;-58
2021/04/16 07:34:05;;;;;;;20.63;14.43;;;;;;;5.40;100.00;100462.06;20864734;28;20719;-58
2021/04/16 07:44:05;;;;;;;22.53;15.23;;;;;;;5.44;100.00;100447.75;20890296;28;20405;-60
2021/04/16 07:54:21;;;;;;;21.35;14.65;;;;;;;5.56;100.00;100454.34;20879016;28;20509;-59
2021/04/16 08:04:21;;;;;;;29.77;17.80;;;;;;;5.54;100.00;100459.72;20876984;28;20233;-57
2021/04/16 08:14:25;;;;;;;23.30;14.80;;;;;;;5.49;100.00;100469.63;20871580;28;20226;-60
2021/04/16 08:24:32;;;;;;;28.07;17.10;;;;;;;5.56;100.00;100457.84;20865521;28;20223;-67
2021/04/16 08:34:46;;;;;;;23.07;15.30;;;;;;;5.49;100.00;100476.69;20876180;28;20712;-57
2021/04/16 08:44:54;;;;;;;23.73;14.13;;;;;;;5.54;100.00;100469.44;20848419;28;20224;-56
2021/04/16 08:55:08;;;;;;;25.50;15.33;;;;;;;5.65;100.00;100461.91;20878877;28;20469;-58
2021/04/16 09:05:14;;;;;;;23.67;15.20;;;;;;;5.73;100.00;100465.97;20866806;28;20692;-58
2021/04/16 09:15:21;;;;;;;18.17;14.13;;;;;;;5.86;100.00;100466.31;20896966;28;20220;-55
2021/04/16 09:25:37;;;;;;;21.30;15.10;;;;;;;6.10;100.00;100459.97;20877717;28;20231;-56
2021/04/16 09:35:37;;;;;;;16.03;12.77;;;;;;;6.27;100.00;100458.41;20890665;28;20246;-56
2021/04/16 09:45:41;;;;;;;15.57;12.17;;;;;;;6.35;100.00;100459.75;20881223;28;20235;-56
2021/04/16 09:55:57;;;;;;;14.67;12.33;;;;;;;6.53;100.00;100452.75;20881714;28;20684;-61
2021/04/16 10:06:29;;;;;;;26.57;16.67;;;;;;;6.78;100.00;100448.03;20890561;28;20231;-56
2021/04/16 10:16:30;;;;;;;22.00;15.13;;;;;;;6.83;100.00;100445.19;20876624;28;20285;-54
2021/04/16 10:59:42;;;;;;;16.60;11.93;;;;;;;6.73;100.00;100452.72;20867566;28;20294;-53
2021/04/16 12:41:56;;;;;;;27.33;21.33;;;;;;;6.88;100.00;100465.25;20821601;28;20314;-61
2021/04/16 12:51:57;;;;;;;19.47;17.37;;;;;;;6.69;100.00;100467.03;20807314;28;20223;-64
2021/04/16 13:01:58;;;;;;;28.37;21.27;;;;;;;6.85;100.00;100464.56;20844333;28;20234;-60
2021/04/16 13:11:59;;;;;;;19.60;16.90;;;;;;;6.73;100.00;100460.69;20835240;28;21103;-65
2021/04/16 13:22:08;;;;;;;22.20;18.27;;;;;;;6.55;100.00;100464.16;20853811;28;20232;-57
2021/04/16 13:32:12;;;;;;;25.17;17.67;;;;;;;6.49;100.00;100472.41;20826824;28;20856;-55
2021/04/16 13:42:13;;;;;;;42.50;22.10;;;;;;;6.24;100.00;100471.78;20818798;28;20223;-58
2021/04/16 13:52:13;;;;;;;26.37;16.73;;;;;;;6.27;100.00;100490.19;20824957;28;20772;-59
2021/04/16 14:02:24;;;;;;;24.77;17.30;;;;;;;6.43;100.00;100467.34;20827597;28;20409;-57
2021/04/16 14:12:24;;;;;;;15.00;11.80;;;;;;;6.20;100.00;100480.78;20840811;28;20258;-58
2021/04/16 14:22:33;;;;;;;24.93;15.93;;;;;;;6.06;100.00;100474.28;20819743;28;20384;-58
2021/04/16 14:32:33;;;;;;;13.03;9.67;;;;;;;5.83;100.00;100490.25;20801688;28;20479;-58
2021/04/16 14:42:34;;;;;;;11.03;8.73;;;;;;;5.64;100.00;100486.66;20818952;28;20319;-57
2021/04/16 14:52:35;;;;;;;9.80;8.63;;;;;;;5.60;100.00;100485.91;20837713;28;20326;-58
2021/04/16 15:02:36;;;;;;;9.30;7.73;;;;;;;5.72;100.00;100487.19;20819735;28;20914;-62
2021/04/16 15:12:43;;;;;;;12.43;9.50;;;;;;;5.79;100.00;100491.34;20832807;28;20242;-58
2021/04/16 15:22:44;;;;;;;30.63;20.57;;;;;;;5.86;100.00;100495.44;20828116;28;21047;-66
2021/04/16 15:32:45;;;;;;;18.60;12.77;;;;;;;6.00;100.00;100501.06;20825085;28;20252;-60
2021/04/16 15:53:09;;;;;;;30.37;17.63;;;;;;;6.02;100.00;100504.50;20820406;28;20326;-59
2021/04/16 16:03:11;;;;;;;39.17;23.47;;;;;;;6.03;100.00;100500.94;20834454;28;20231;-58
2021/04/16 16:13:39;;;;;;;29.50;19.70;;;;;;;6.01;100.00;100518.66;20812198;28;20238;-59
2021/04/16 16:23:42;;;;;;;47.83;28.47;;;;;;;6.00;100.00;100511.66;20831461;28;20235;-59
2021/04/16 16:33:43;;;;;;;32.93;22.00;;;;;;;6.13;100.00;100526.09;20814260;28;20239;-59
2021/04/16 16:43:47;;;;;;;39.30;24.30;;;;;;;6.13;100.00;100520.78;20830876;28;20338;-67
2021/04/16 16:53:47;;;;;;;34.40;24.47;;;;;;;6.14;100.00;100526.97;20818504;28;20234;-59
2021/04/16 17:03:48;;;;;;;58.33;31.40;;;;;;;6.19;100.00;100532.03;20825817;28;20245;-57
2021/04/16 17:13:49;;;;;;;34.10;23.30;;;;;;;6.19;100.00;100535.56;20823803;28;20237;-57
2021/04/16 17:23:50;;;;;;;48.70;29.53;;;;;;;6.18;100.00;100546.22;20799518;28;20228;-58
2021/04/16 17:34:00;;;;;;;48.93;27.57;;;;;;;6.03;100.00;100553.03;20843695;28;20242;-60
2021/04/16 17:44:02;;;;;;;50.37;27.90;;;;;;;6.06;100.00;100566.13;20827332;28;20484;-58
2021/04/16 17:54:03;;;;;;;52.27;28.60;;;;;;;6.13;100.00;100571.13;20846926;28;20340;-60
2021/04/16 18:04:04;;;;;;;72.47;36.40;;;;;;;6.24;100.00;100581.28;20828310;28;20223;-64
2021/04/16 18:14:05;;;;;;;78.63;35.20;;;;;;;6.31;100.00;100589.81;20845502;28;20249;-59
2021/04/16 18:24:21;;;;;;;58.07;36.90;;;;;;;6.30;100.00;100598.69;20812182;28;20253;-59
2021/04/16 18:34:21;;;;;;;61.40;37.33;;;;;;;6.31;100.00;100597.78;20831523;28;20971;-65
2021/04/16 18:44:24;;;;;;;115.00;49.53;;;;;;;6.31;100.00;100611.03;20830277;28;20322;-60
2021/04/16 18:54:37;;;;;;;58.90;33.87;;;;;;;6.38;100.00;100617.81;20823154;28;20473;-57
2021/04/16 19:04:37;;;;;;;73.93;40.53;;;;;;;6.36;100.00;100611.69;20834853;28;20234;-56
2021/04/16 19:14:40;;;;;;;75.23;42.90;;;;;;;6.32;100.00;100618.03;20819510;28;21121;-56
2021/04/16 19:24:43;;;;;;;106.03;52.30;;;;;;;6.34;100.00;100616.19;20834470;28;20957;-63
2021/04/16 19:34:44;;;;;;;66.27;34.83;;;;;;;6.41;100.00;100618.50;20814016;28;20235;-56
2021/04/16 19:44:45;;;;;;;84.63;38.97;;;;;;;6.45;100.00;100614.81;20855201;28;20234;-59
2021/04/16 20:25:46;;;;;;;55.50;34.23;;;;;;;6.44;100.00;100612.22;20836803;28;20233;-56
2021/04/16 20:35:47;;;;;;;59.13;34.57;;;;;;;6.44;100.00;100613.09;20811330;28;21076;-56
2021/04/16 20:45:48;;;;;;;79.33;39.57;;;;;;;6.39;100.00;100604.50;20832561;28;20366;-55
2021/04/16 20:55:53;;;;;;;67.80;37.67;;;;;;;6.39;100.00;100611.56;20811882;28;20228;-66
2021/04/16 21:06:16;;;;;;;59.57;34.50;;;;;;;6.44;100.00;100606.91;20845376;28;20251;-63
2021/04/16 21:16:20;;;;;;;67.33;36.50;;;;;;;6.47;100.00;100606.81;20830398;28;20256;-57
2021/04/16 21:26:25;;;;;;;55.83;34.80;;;;;;;6.47;100.00;100598.84;20840403;28;20981;-61
2021/04/16 21:36:30;;;;;;;63.67;38.17;;;;;;;6.50;100.00;100604.03;20835686;28;20864;-55
2021/04/16 21:46:37;;;;;;;63.83;39.13;;;;;;;6.44;100.00;100612.22;20832384;28;20231;-54
2021/04/16 21:56:38;;;;;;;92.17;45.73;;;;;;;6.40;100.00;100610.66;20843198;28;20227;-55
2021/04/16 22:06:41;;;;;;;72.93;41.87;;;;;;;6.41;100.00;100613.22;20823339;28;20235;-56
2021/04/16 22:16:52;;;;;;;119.83;52.13;;;;;;;6.38;100.00;100617.81;20837161;28;20231;-61
2021/04/16 22:27:22;;;;;;;96.07;46.20;;;;;;;6.33;100.00;100617.13;20784440;28;20231;-57
2021/04/16 22:37:29;;;;;;;90.93;43.43;;;;;;;6.34;100.00;100610.91;20821476;28;20238;-61
2021/04/16 22:47:33;;;;;;;73.10;39.67;;;;;;;6.32;100.00;100602.13;20824393;28;20619;-56
2021/04/16 22:57:39;;;;;;;77.80;40.73;;;;;;;6.23;100.00;100599.88;20802392;28;20224;-61
2021/04/16 23:07:58;;;;;;;84.33;40.80;;;;;;;6.27;100.00;100604.16;20792284;28;20244;-57
2021/04/16 23:17:59;;;;;;;79.70;38.23;;;;;;;6.28;100.00;100597.91;20803195;28;20228;-57
2021/04/16 23:28:14;;;;;;;85.50;40.67;;;;;;;6.31;100.00;100613.66;20784180;28;20232;-62
2021/04/16 23:38:16;;;;;;;64.10;32.93;;;;;;;6.42;100.00;100592.88;20787823;28;20258;-57
2021/04/16 23:48:16;;;;;;;54.27;30.43;;;;;;;6.37;100.00;100589.56;20804299;28;20259;-57
2021/04/16 23:58:17;;;;;;;57.00;31.98;;;;;;;6.48;100.00;100593.47;20782101;28;20228;-57
